sensor_id;sensor_type;location;lat;lon;timestamp;pressure;altitude;pressure_sealevel;temperature;humidity
56831;BME280;42713;42.676;23.352;2023-07-29T00:02:21;94645.13;;;21.82;46.38
56831;BME280;42713;42.676;23.352;2023-07-29T00:04:47;94648.25;;;21.75;46.83
56831;BME280;42713;42.676;23.352;2023-07-29T00:07:13;94647.81;;;21.73;46.90
56831;BME280;42713;42.676;23.352;2023-07-29T00:09:38;94652.66;;;21.71;46.85
56831;BME280;42713;42.676;23.352;2023-07-29T00:12:04;94652.81;;;21.66;47.13
56831;BME280;42713;42.676;23.352;2023-07-29T00:14:30;94646.88;;;21.60;47.37
56831;BME280;42713;42.676;23.352;2023-07-29T00:16:55;94647.66;;;21.60;47.36
56831;BME280;42713;42.676;23.352;2023-07-29T00:19:20;94653.25;;;21.50;47.28
56831;BME280;42713;42.676;23.352;2023-07-29T00:21:48;94656.56;;;21.38;47.71
56831;BME280;42713;42.676;23.352;2023-07-29T00:24:14;94646.66;;;21.39;47.85
56831;BME280;42713;42.676;23.352;2023-07-29T00:26:39;94650.44;;;21.38;47.97
56831;BME280;42713;42.676;23.352;2023-07-29T00:29:05;94652.94;;;21.34;48.14
56831;BME280;42713;42.676;23.352;2023-07-29T00:31:30;94651.81;;;21.26;48.26
56831;BME280;42713;42.676;23.352;2023-07-29T00:33:56;94639.44;;;21.22;48.82
56831;BME280;42713;42.676;23.352;2023-07-29T00:36:23;94654.97;;;21.20;49.05
56831;BME280;42713;42.676;23.352;2023-07-29T00:38:49;94645.53;;;21.13;48.96
56831;BME280;42713;42.676;23.352;2023-07-29T00:41:15;94647.13;;;21.14;49.24
56831;BME280;42713;42.676;23.352;2023-07-29T00:43:41;94646.34;;;21.14;49.19
56831;BME280;42713;42.676;23.352;2023-07-29T00:46:07;94640.88;;;21.10;49.13
56831;BME280;42713;42.676;23.352;2023-07-29T00:48:33;94636.16;;;21.07;49.05
56831;BME280;42713;42.676;23.352;2023-07-29T00:50:59;94645.38;;;21.10;49.09
56831;BME280;42713;42.676;23.352;2023-07-29T00:53:24;94632.06;;;21.10;49.16
56831;BME280;42713;42.676;23.352;2023-07-29T00:55:50;94638.19;;;21.10;49.16
56831;BME280;42713;42.676;23.352;2023-07-29T00:58:15;94637.72;;;21.08;49.08
56831;BME280;42713;42.676;23.352;2023-07-29T01:00:41;94639.13;;;21.06;48.99
56831;BME280;42713;42.676;23.352;2023-07-29T01:03:07;94639.44;;;21.04;49.13
56831;BME280;42713;42.676;23.352;2023-07-29T01:05:42;94639.91;;;21.06;48.99
56831;BME280;42713;42.676;23.352;2023-07-29T01:08:31;94631.28;;;21.01;49.03
56831;BME280;42713;42.676;23.352;2023-07-29T01:11:12;94629.72;;;20.99;49.28
56831;BME280;42713;42.676;23.352;2023-07-29T01:13:50;94628.44;;;20.97;48.79
56831;BME280;42713;42.676;23.352;2023-07-29T01:16:30;94630.50;;;21.00;48.46
56831;BME280;42713;42.676;23.352;2023-07-29T01:18:59;94638.50;;;21.00;48.10
56831;BME280;42713;42.676;23.352;2023-07-29T01:21:27;94633.16;;;21.00;47.76
56831;BME280;42713;42.676;23.352;2023-07-29T01:23:58;94633.31;;;20.95;47.51
56831;BME280;42713;42.676;23.352;2023-07-29T01:26:24;94630.63;;;20.86;47.56
56831;BME280;42713;42.676;23.352;2023-07-29T01:28:50;94637.34;;;20.83;48.13
56831;BME280;42713;42.676;23.352;2023-07-29T01:31:25;94642.38;;;20.85;48.40
56831;BME280;42713;42.676;23.352;2023-07-29T01:33:58;94639.56;;;20.81;48.38
56831;BME280;42713;42.676;23.352;2023-07-29T01:36:27;94640.94;;;20.79;48.73
56831;BME280;42713;42.676;23.352;2023-07-29T01:38:54;94640.75;;;20.75;49.24
56831;BME280;42713;42.676;23.352;2023-07-29T01:41:22;94628.69;;;20.69;49.36
56831;BME280;42713;42.676;23.352;2023-07-29T01:43:48;94634.94;;;20.64;49.65
56831;BME280;42713;42.676;23.352;2023-07-29T01:46:14;94629.44;;;20.61;49.93
56831;BME280;42713;42.676;23.352;2023-07-29T01:48:40;94640.69;;;20.58;49.61
56831;BME280;42713;42.676;23.352;2023-07-29T01:51:06;94637.53;;;20.56;49.91
56831;BME280;42713;42.676;23.352;2023-07-29T01:53:32;94632.53;;;20.54;50.00
56831;BME280;42713;42.676;23.352;2023-07-29T01:55:58;94636.78;;;20.55;49.76
56831;BME280;42713;42.676;23.352;2023-07-29T01:58:24;94634.72;;;20.52;49.88
56831;BME280;42713;42.676;23.352;2023-07-29T02:00:49;94634.56;;;20.48;49.92
56831;BME280;42713;42.676;23.352;2023-07-29T02:03:15;94637.31;;;20.43;50.09
56831;BME280;42713;42.676;23.352;2023-07-29T02:05:40;94641.56;;;20.44;50.37
56831;BME280;42713;42.676;23.352;2023-07-29T02:08:09;94640.00;;;20.43;50.49
56831;BME280;42713;42.676;23.352;2023-07-29T02:10:35;94641.09;;;20.42;50.48
56831;BME280;42713;42.676;23.352;2023-07-29T02:13:01;94640.31;;;20.42;50.32
56831;BME280;42713;42.676;23.352;2023-07-29T02:15:26;94637.97;;;20.40;50.91
56831;BME280;42713;42.676;23.352;2023-07-29T02:17:53;94643.88;;;20.37;50.94
56831;BME280;42713;42.676;23.352;2023-07-29T02:20:18;94650.28;;;20.36;50.80
56831;BME280;42713;42.676;23.352;2023-07-29T02:22:44;94652.00;;;20.32;50.96
56831;BME280;42713;42.676;23.352;2023-07-29T02:25:09;94650.56;;;20.26;51.15
56831;BME280;42713;42.676;23.352;2023-07-29T02:27:35;94645.38;;;20.20;51.46
56831;BME280;42713;42.676;23.352;2023-07-29T02:30:01;94651.78;;;20.19;51.80
56831;BME280;42713;42.676;23.352;2023-07-29T02:32:27;94643.00;;;20.19;51.60
56831;BME280;42713;42.676;23.352;2023-07-29T02:34:52;94642.34;;;20.13;51.55
56831;BME280;42713;42.676;23.352;2023-07-29T02:37:18;94647.66;;;20.13;51.75
56831;BME280;42713;42.676;23.352;2023-07-29T02:39:44;94638.56;;;20.05;51.82
56831;BME280;42713;42.676;23.352;2023-07-29T02:42:09;94650.16;;;20.10;51.86
56831;BME280;42713;42.676;23.352;2023-07-29T02:44:35;94641.50;;;20.04;52.15
56831;BME280;42713;42.676;23.352;2023-07-29T02:47:00;94641.84;;;20.02;52.24
56831;BME280;42713;42.676;23.352;2023-07-29T02:49:26;94637.59;;;20.01;52.52
56831;BME280;42713;42.676;23.352;2023-07-29T02:51:51;94641.84;;;20.02;52.55
56831;BME280;42713;42.676;23.352;2023-07-29T02:54:16;94648.53;;;20.00;52.54
56831;BME280;42713;42.676;23.352;2023-07-29T02:56:42;94650.53;;;19.94;52.59
56831;BME280;42713;42.676;23.352;2023-07-29T02:59:08;94650.19;;;19.87;52.84
56831;BME280;42713;42.676;23.352;2023-07-29T03:01:34;94644.47;;;19.80;52.96
56831;BME280;42713;42.676;23.352;2023-07-29T03:03:59;94649.41;;;19.72;53.30
56831;BME280;42713;42.676;23.352;2023-07-29T03:06:25;94654.56;;;19.69;53.65
56831;BME280;42713;42.676;23.352;2023-07-29T03:08:50;94658.44;;;19.63;53.69
56831;BME280;42713;42.676;23.352;2023-07-29T03:11:16;94658.94;;;19.51;54.11
56831;BME280;42713;42.676;23.352;2023-07-29T03:13:42;94668.91;;;19.45;54.52
56831;BME280;42713;42.676;23.352;2023-07-29T03:16:10;94673.56;;;19.39;54.74
56831;BME280;42713;42.676;23.352;2023-07-29T03:18:36;94675.53;;;19.34;55.04
56831;BME280;42713;42.676;23.352;2023-07-29T03:21:02;94665.81;;;19.29;54.97
56831;BME280;42713;42.676;23.352;2023-07-29T03:23:28;94669.56;;;19.28;55.21
56831;BME280;42713;42.676;23.352;2023-07-29T03:25:55;94674.06;;;19.27;55.07
56831;BME280;42713;42.676;23.352;2023-07-29T03:28:29;94672.47;;;19.26;55.26
56831;BME280;42713;42.676;23.352;2023-07-29T03:30:55;94666.81;;;19.19;55.68
56831;BME280;42713;42.676;23.352;2023-07-29T03:33:21;94680.19;;;19.14;55.56
56831;BME280;42713;42.676;23.352;2023-07-29T03:35:47;94674.09;;;19.13;55.78
56831;BME280;42713;42.676;23.352;2023-07-29T03:38:13;94673.00;;;19.15;55.85
56831;BME280;42713;42.676;23.352;2023-07-29T03:40:39;94671.91;;;19.16;55.59
56831;BME280;42713;42.676;23.352;2023-07-29T03:43:05;94673.31;;;19.13;55.78
56831;BME280;42713;42.676;23.352;2023-07-29T03:45:31;94674.97;;;19.09;56.13
56831;BME280;42713;42.676;23.352;2023-07-29T03:47:57;94678.72;;;19.08;55.91
56831;BME280;42713;42.676;23.352;2023-07-29T03:50:22;94676.06;;;19.08;56.00
56831;BME280;42713;42.676;23.352;2023-07-29T03:52:48;94676.84;;;19.08;55.97
56831;BME280;42713;42.676;23.352;2023-07-29T03:55:14;94670.75;;;19.08;55.92
56831;BME280;42713;42.676;23.352;2023-07-29T03:57:39;94675.28;;;19.07;55.66
56831;BME280;42713;42.676;23.352;2023-07-29T04:00:05;94668.91;;;19.08;56.30
56831;BME280;42713;42.676;23.352;2023-07-29T04:02:31;94669.97;;;19.07;56.14
56831;BME280;42713;42.676;23.352;2023-07-29T04:04:56;94670.56;;;19.04;56.28
56831;BME280;42713;42.676;23.352;2023-07-29T04:07:22;94667.72;;;19.01;56.22
56831;BME280;42713;42.676;23.352;2023-07-29T04:09:47;94674.59;;;19.02;56.17
56831;BME280;42713;42.676;23.352;2023-07-29T04:12:14;94677.75;;;19.04;56.17
56831;BME280;42713;42.676;23.352;2023-07-29T04:14:40;94680.41;;;19.04;56.45
56831;BME280;42713;42.676;23.352;2023-07-29T04:17:06;94680.88;;;19.06;56.54
56831;BME280;42713;42.676;23.352;2023-07-29T04:19:33;94691.97;;;19.08;56.29
56831;BME280;42713;42.676;23.352;2023-07-29T04:21:58;94687.47;;;19.08;56.33
56831;BME280;42713;42.676;23.352;2023-07-29T04:24:24;94681.88;;;19.10;55.94
56831;BME280;42713;42.676;23.352;2023-07-29T04:26:50;94679.13;;;19.15;56.28
56831;BME280;42713;42.676;23.352;2023-07-29T04:29:16;94683.53;;;19.20;55.80
56831;BME280;42713;42.676;23.352;2023-07-29T04:31:42;94685.56;;;19.23;56.15
56831;BME280;42713;42.676;23.352;2023-07-29T04:34:07;94682.34;;;19.26;55.94
56831;BME280;42713;42.676;23.352;2023-07-29T04:36:33;94677.22;;;19.29;55.97
56831;BME280;42713;42.676;23.352;2023-07-29T04:38:58;94683.97;;;19.36;55.13
56831;BME280;42713;42.676;23.352;2023-07-29T04:41:24;94684.66;;;19.41;54.55
56831;BME280;42713;42.676;23.352;2023-07-29T04:43:49;94683.47;;;19.48;54.01
56831;BME280;42713;42.676;23.352;2023-07-29T04:46:15;94683.84;;;19.55;53.33
56831;BME280;42713;42.676;23.352;2023-07-29T04:48:40;94682.94;;;19.59;53.39
56831;BME280;42713;42.676;23.352;2023-07-29T04:51:06;94687.03;;;19.66;53.37
56831;BME280;42713;42.676;23.352;2023-07-29T04:53:31;94686.13;;;19.70;53.59
56831;BME280;42713;42.676;23.352;2023-07-29T04:55:57;94690.38;;;19.71;53.46
56831;BME280;42713;42.676;23.352;2023-07-29T04:58:22;94694.78;;;19.76;53.00
56831;BME280;42713;42.676;23.352;2023-07-29T05:00:48;94701.06;;;19.80;53.15
56831;BME280;42713;42.676;23.352;2023-07-29T05:03:13;94690.94;;;19.82;52.72
56831;BME280;42713;42.676;23.352;2023-07-29T05:05:38;94703.03;;;19.88;52.89
56831;BME280;42713;42.676;23.352;2023-07-29T05:08:04;94708.03;;;19.90;52.59
56831;BME280;42713;42.676;23.352;2023-07-29T05:10:29;94710.88;;;19.94;52.56
56831;BME280;42713;42.676;23.352;2023-07-29T05:12:56;94708.72;;;19.96;52.78
56831;BME280;42713;42.676;23.352;2023-07-29T05:15:21;94705.16;;;20.00;52.53
56831;BME280;42713;42.676;23.352;2023-07-29T05:17:47;94709.56;;;20.05;51.94
56831;BME280;42713;42.676;23.352;2023-07-29T05:20:12;94709.72;;;20.09;51.55
56831;BME280;42713;42.676;23.352;2023-07-29T05:22:38;94711.47;;;20.13;51.48
56831;BME280;42713;42.676;23.352;2023-07-29T05:25:03;94708.81;;;20.13;51.82
56831;BME280;42713;42.676;23.352;2023-07-29T05:27:29;94712.47;;;20.17;52.16
56831;BME280;42713;42.676;23.352;2023-07-29T05:29:54;94712.03;;;20.24;52.01
56831;BME280;42713;42.676;23.352;2023-07-29T05:32:20;94712.22;;;20.28;51.99
56831;BME280;42713;42.676;23.352;2023-07-29T05:34:45;94715.22;;;20.35;51.83
56831;BME280;42713;42.676;23.352;2023-07-29T05:37:11;94713.53;;;20.39;51.42
56831;BME280;42713;42.676;23.352;2023-07-29T05:39:36;94716.84;;;20.45;51.44
56831;BME280;42713;42.676;23.352;2023-07-29T05:42:03;94721.75;;;20.51;51.76
56831;BME280;42713;42.676;23.352;2023-07-29T05:44:28;94717.38;;;20.56;51.42
56831;BME280;42713;42.676;23.352;2023-07-29T05:46:55;94716.16;;;20.62;51.15
56831;BME280;42713;42.676;23.352;2023-07-29T05:49:21;94723.22;;;20.66;51.01
56831;BME280;42713;42.676;23.352;2023-07-29T05:51:47;94715.88;;;20.72;50.63
56831;BME280;42713;42.676;23.352;2023-07-29T05:54:12;94718.44;;;20.77;50.47
56831;BME280;42713;42.676;23.352;2023-07-29T05:56:38;94714.84;;;20.82;50.42
56831;BME280;42713;42.676;23.352;2023-07-29T05:59:03;94721.31;;;20.90;50.16
56831;BME280;42713;42.676;23.352;2023-07-29T06:01:29;94721.66;;;20.97;50.24
56831;BME280;42713;42.676;23.352;2023-07-29T06:03:54;94721.03;;;21.00;50.37
56831;BME280;42713;42.676;23.352;2023-07-29T06:06:20;94719.03;;;21.06;50.39
56831;BME280;42713;42.676;23.352;2023-07-29T06:08:45;94722.63;;;21.10;50.37
56831;BME280;42713;42.676;23.352;2023-07-29T06:11:10;94717.94;;;21.15;49.64
56831;BME280;42713;42.676;23.352;2023-07-29T06:13:36;94718.91;;;21.20;49.46
56831;BME280;42713;42.676;23.352;2023-07-29T06:16:01;94716.06;;;21.25;49.69
56831;BME280;42713;42.676;23.352;2023-07-29T06:18:27;94707.47;;;21.28;49.87
56831;BME280;42713;42.676;23.352;2023-07-29T06:20:53;94711.88;;;21.33;49.42
56831;BME280;42713;42.676;23.352;2023-07-29T06:23:19;94707.47;;;21.37;49.17
56831;BME280;42713;42.676;23.352;2023-07-29T06:25:44;94707.34;;;21.42;49.30
56831;BME280;42713;42.676;23.352;2023-07-29T06:28:09;94712.22;;;21.49;49.54
56831;BME280;42713;42.676;23.352;2023-07-29T06:30:35;94708.59;;;21.53;48.83
56831;BME280;42713;42.676;23.352;2023-07-29T06:33:01;94694.97;;;21.55;48.39
56831;BME280;42713;42.676;23.352;2023-07-29T06:35:28;94697.53;;;21.60;48.65
56831;BME280;42713;42.676;23.352;2023-07-29T06:37:53;94693.72;;;21.61;49.16
56831;BME280;42713;42.676;23.352;2023-07-29T06:49:35;94671.34;;;21.80;49.07
56831;BME280;42713;42.676;23.352;2023-07-29T06:52:07;94671.94;;;21.85;49.75
56831;BME280;42713;42.676;23.352;2023-07-29T06:54:32;94687.31;;;21.97;49.94
56831;BME280;42713;42.676;23.352;2023-07-29T06:56:58;94686.38;;;22.02;49.01
56831;BME280;42713;42.676;23.352;2023-07-29T06:59:23;94683.84;;;22.05;49.40
56831;BME280;42713;42.676;23.352;2023-07-29T07:01:50;94678.34;;;22.11;49.59
56831;BME280;42713;42.676;23.352;2023-07-29T07:04:15;94687.91;;;22.12;49.33
56831;BME280;42713;42.676;23.352;2023-07-29T07:06:40;94689.63;;;22.16;49.35
56831;BME280;42713;42.676;23.352;2023-07-29T07:09:06;94689.78;;;22.20;49.13
56831;BME280;42713;42.676;23.352;2023-07-29T07:11:32;94680.38;;;22.22;49.22
56831;BME280;42713;42.676;23.352;2023-07-29T07:13:57;94689.44;;;22.30;49.35
56831;BME280;42713;42.676;23.352;2023-07-29T07:16:25;94682.69;;;22.33;49.46
56831;BME280;42713;42.676;23.352;2023-07-29T07:18:50;94690.69;;;22.42;48.63
56831;BME280;42713;42.676;23.352;2023-07-29T07:21:16;94678.59;;;22.44;48.58
56831;BME280;42713;42.676;23.352;2023-07-29T07:23:43;94679.53;;;22.48;48.76
56831;BME280;42713;42.676;23.352;2023-07-29T07:26:08;94674.97;;;22.49;48.54
56831;BME280;42713;42.676;23.352;2023-07-29T07:28:34;94678.38;;;22.58;48.65
56831;BME280;42713;42.676;23.352;2023-07-29T07:30:59;94670.84;;;22.60;49.15
56831;BME280;42713;42.676;23.352;2023-07-29T07:33:25;94678.69;;;22.65;49.31
56831;BME280;42713;42.676;23.352;2023-07-29T07:35:50;94675.38;;;22.68;49.24
56831;BME280;42713;42.676;23.352;2023-07-29T07:38:16;94669.41;;;22.72;48.96
56831;BME280;42713;42.676;23.352;2023-07-29T07:40:41;94670.47;;;22.79;48.54
56831;BME280;42713;42.676;23.352;2023-07-29T07:43:07;94667.16;;;22.82;48.56
56831;BME280;42713;42.676;23.352;2023-07-29T07:45:32;94671.22;;;22.89;48.53
56831;BME280;42713;42.676;23.352;2023-07-29T07:47:58;94667.91;;;22.92;48.51
56831;BME280;42713;42.676;23.352;2023-07-29T07:50:24;94674.16;;;22.96;48.29
56831;BME280;42713;42.676;23.352;2023-07-29T07:52:49;94673.50;;;22.99;48.60
56831;BME280;42713;42.676;23.352;2023-07-29T07:55:15;94667.22;;;23.04;48.05
56831;BME280;42713;42.676;23.352;2023-07-29T07:57:40;94676.78;;;23.05;47.21
56831;BME280;42713;42.676;23.352;2023-07-29T08:00:06;94674.41;;;23.03;46.88
56831;BME280;42713;42.676;23.352;2023-07-29T08:02:32;94683.38;;;23.07;46.70
56831;BME280;42713;42.676;23.352;2023-07-29T08:04:57;94673.28;;;23.13;46.95
56831;BME280;42713;42.676;23.352;2023-07-29T08:07:23;94669.34;;;23.19;46.93
56831;BME280;42713;42.676;23.352;2023-07-29T08:09:48;94680.31;;;23.26;46.96
56831;BME280;42713;42.676;23.352;2023-07-29T08:12:14;94668.50;;;23.27;46.31
56831;BME280;42713;42.676;23.352;2023-07-29T08:14:41;94678.88;;;23.29;44.18
56831;BME280;42713;42.676;23.352;2023-07-29T08:17:07;94677.63;;;23.26;44.14
56831;BME280;42713;42.676;23.352;2023-07-29T08:19:32;94677.31;;;23.28;45.04
56831;BME280;42713;42.676;23.352;2023-07-29T08:22:02;94684.47;;;23.36;45.09
56831;BME280;42713;42.676;23.352;2023-07-29T08:24:28;94676.13;;;23.38;44.39
56831;BME280;42713;42.676;23.352;2023-07-29T08:26:53;94681.44;;;23.46;45.56
56831;BME280;42713;42.676;23.352;2023-07-29T08:29:19;94676.34;;;23.54;45.31
56831;BME280;42713;42.676;23.352;2023-07-29T08:31:44;94674.72;;;23.61;44.33
56831;BME280;42713;42.676;23.352;2023-07-29T08:34:10;94663.81;;;23.67;44.83
56831;BME280;42713;42.676;23.352;2023-07-29T08:36:35;94666.28;;;23.72;44.72
56831;BME280;42713;42.676;23.352;2023-07-29T08:39:00;94673.34;;;23.76;44.76
56831;BME280;42713;42.676;23.352;2023-07-29T08:41:30;94671.13;;;23.78;44.66
56831;BME280;42713;42.676;23.352;2023-07-29T08:44:23;94669.47;;;23.86;43.05
56831;BME280;42713;42.676;23.352;2023-07-29T08:46:49;94665.03;;;23.90;43.31
56831;BME280;42713;42.676;23.352;2023-07-29T08:49:16;94663.13;;;23.91;43.44
56831;BME280;42713;42.676;23.352;2023-07-29T08:51:47;94659.31;;;24.01;43.52
56831;BME280;42713;42.676;23.352;2023-07-29T08:54:13;94651.97;;;24.10;43.20
56831;BME280;42713;42.676;23.352;2023-07-29T08:56:40;94659.91;;;24.19;42.02
56831;BME280;42713;42.676;23.352;2023-07-29T08:59:07;94649.34;;;24.22;40.55
56831;BME280;42713;42.676;23.352;2023-07-29T09:01:33;94651.91;;;24.31;40.54
56831;BME280;42713;42.676;23.352;2023-07-29T09:03:59;94640.09;;;24.32;41.11
56831;BME280;42713;42.676;23.352;2023-07-29T09:06:25;94650.25;;;24.39;40.69
56831;BME280;42713;42.676;23.352;2023-07-29T09:08:54;94650.16;;;24.48;39.98
56831;BME280;42713;42.676;23.352;2023-07-29T09:11:21;94640.91;;;24.58;40.52
56831;BME280;42713;42.676;23.352;2023-07-29T09:13:47;94638.34;;;24.61;39.37
56831;BME280;42713;42.676;23.352;2023-07-29T09:16:13;94637.31;;;24.66;38.98
56831;BME280;42713;42.676;23.352;2023-07-29T09:18:39;94632.25;;;24.73;38.86
56831;BME280;42713;42.676;23.352;2023-07-29T09:21:06;94631.56;;;24.76;38.77
56831;BME280;42713;42.676;23.352;2023-07-29T09:23:41;94625.09;;;24.77;38.58
56831;BME280;42713;42.676;23.352;2023-07-29T09:26:07;94630.34;;;24.74;37.86
56831;BME280;42713;42.676;23.352;2023-07-29T09:28:35;94615.84;;;24.75;38.33
56831;BME280;42713;42.676;23.352;2023-07-29T09:31:01;94624.44;;;24.80;37.74
56831;BME280;42713;42.676;23.352;2023-07-29T09:33:27;94621.97;;;24.88;37.59
56831;BME280;42713;42.676;23.352;2023-07-29T09:35:52;94618.72;;;24.94;37.18
56831;BME280;42713;42.676;23.352;2023-07-29T09:38:18;94624.94;;;24.98;36.46
56831;BME280;42713;42.676;23.352;2023-07-29T09:40:55;94623.19;;;25.02;35.06
56831;BME280;42713;42.676;23.352;2023-07-29T09:43:25;94617.16;;;25.06;35.49
56831;BME280;42713;42.676;23.352;2023-07-29T09:45:52;94611.09;;;25.09;35.22
56831;BME280;42713;42.676;23.352;2023-07-29T09:48:22;94607.56;;;25.05;34.57
56831;BME280;42713;42.676;23.352;2023-07-29T09:50:48;94607.84;;;25.15;35.25
56831;BME280;42713;42.676;23.352;2023-07-29T09:53:14;94609.63;;;25.24;36.24
56831;BME280;42713;42.676;23.352;2023-07-29T09:55:39;94599.13;;;25.31;36.08
56831;BME280;42713;42.676;23.352;2023-07-29T09:58:04;94599.31;;;25.38;35.92
56831;BME280;42713;42.676;23.352;2023-07-29T10:00:33;94597.41;;;25.51;35.49
56831;BME280;42713;42.676;23.352;2023-07-29T10:02:59;94587.41;;;25.64;35.85
56831;BME280;42713;42.676;23.352;2023-07-29T10:05:29;94590.72;;;25.73;35.14
56831;BME280;42713;42.676;23.352;2023-07-29T10:07:55;94585.69;;;25.72;33.74
56831;BME280;42713;42.676;23.352;2023-07-29T10:10:21;94581.53;;;25.74;33.32
56831;BME280;42713;42.676;23.352;2023-07-29T10:12:46;94593.47;;;25.77;33.59
56831;BME280;42713;42.676;23.352;2023-07-29T10:15:13;94590.56;;;25.82;32.46
56831;BME280;42713;42.676;23.352;2023-07-29T10:17:39;94585.97;;;25.83;32.64
56831;BME280;42713;42.676;23.352;2023-07-29T10:20:07;94578.34;;;25.85;32.62
56831;BME280;42713;42.676;23.352;2023-07-29T10:22:36;94583.13;;;25.91;32.97
56831;BME280;42713;42.676;23.352;2023-07-29T10:25:04;94575.09;;;25.91;32.57
56831;BME280;42713;42.676;23.352;2023-07-29T10:27:42;94563.41;;;26.00;32.38
56831;BME280;42713;42.676;23.352;2023-07-29T10:30:10;94562.03;;;26.06;32.80
56831;BME280;42713;42.676;23.352;2023-07-29T10:32:38;94554.09;;;26.09;33.61
56831;BME280;42713;42.676;23.352;2023-07-29T10:35:04;94552.63;;;26.12;33.74
56831;BME280;42713;42.676;23.352;2023-07-29T10:37:29;94550.91;;;26.20;34.12
56831;BME280;42713;42.676;23.352;2023-07-29T10:39:56;94551.25;;;26.34;33.91
56831;BME280;42713;42.676;23.352;2023-07-29T10:42:22;94543.34;;;26.41;33.68
56831;BME280;42713;42.676;23.352;2023-07-29T10:44:49;94548.53;;;26.50;33.72
56831;BME280;42713;42.676;23.352;2023-07-29T10:47:15;94541.00;;;26.56;33.48
56831;BME280;42713;42.676;23.352;2023-07-29T10:49:43;94543.16;;;26.66;33.34
56831;BME280;42713;42.676;23.352;2023-07-29T10:52:16;94538.22;;;26.68;32.66
56831;BME280;42713;42.676;23.352;2023-07-29T10:54:46;94529.19;;;26.77;32.77
56831;BME280;42713;42.676;23.352;2023-07-29T10:57:15;94535.78;;;26.79;32.00
56831;BME280;42713;42.676;23.352;2023-07-29T10:59:43;94525.19;;;26.86;31.65
56831;BME280;42713;42.676;23.352;2023-07-29T11:02:19;94530.22;;;26.88;31.61
56831;BME280;42713;42.676;23.352;2023-07-29T11:04:51;94529.56;;;26.95;31.42
56831;BME280;42713;42.676;23.352;2023-07-29T11:09:52;94518.63;;;27.03;30.77
56831;BME280;42713;42.676;23.352;2023-07-29T11:12:43;94514.88;;;27.28;30.47
56831;BME280;42713;42.676;23.352;2023-07-29T11:17:39;94505.13;;;27.82;30.00
56831;BME280;42713;42.676;23.352;2023-07-29T11:20:05;94507.81;;;28.05;29.77
56831;BME280;42713;42.676;23.352;2023-07-29T11:22:32;94518.28;;;28.34;29.59
56831;BME280;42713;42.676;23.352;2023-07-29T11:24:58;94508.66;;;28.60;29.06
56831;BME280;42713;42.676;23.352;2023-07-29T11:27:23;94512.91;;;28.87;28.14
56831;BME280;42713;42.676;23.352;2023-07-29T11:29:49;94510.38;;;28.98;27.72
56831;BME280;42713;42.676;23.352;2023-07-29T11:32:15;94509.47;;;29.21;27.97
56831;BME280;42713;42.676;23.352;2023-07-29T11:34:41;94502.34;;;29.36;28.24
56831;BME280;42713;42.676;23.352;2023-07-29T11:37:10;94503.28;;;29.51;27.71
56831;BME280;42713;42.676;23.352;2023-07-29T11:39:43;94499.94;;;29.65;27.82
56831;BME280;42713;42.676;23.352;2023-07-29T11:42:13;94495.84;;;29.78;27.60
56831;BME280;42713;42.676;23.352;2023-07-29T11:44:39;94487.06;;;29.89;27.19
56831;BME280;42713;42.676;23.352;2023-07-29T11:47:08;94495.72;;;30.05;27.40
56831;BME280;42713;42.676;23.352;2023-07-29T11:49:35;94485.75;;;30.13;27.30
56831;BME280;42713;42.676;23.352;2023-07-29T11:52:02;94483.44;;;30.15;26.77
56831;BME280;42713;42.676;23.352;2023-07-29T11:54:28;94464.00;;;29.95;25.86
56831;BME280;42713;42.676;23.352;2023-07-29T11:56:55;94479.72;;;29.89;25.64
56831;BME280;42713;42.676;23.352;2023-07-29T11:59:21;94470.47;;;29.90;26.40
56831;BME280;42713;42.676;23.352;2023-07-29T12:01:47;94476.22;;;29.85;25.88
56831;BME280;42713;42.676;23.352;2023-07-29T12:04:13;94479.28;;;29.84;26.21
56831;BME280;42713;42.676;23.352;2023-07-29T12:06:39;94472.81;;;29.92;26.33
56831;BME280;42713;42.676;23.352;2023-07-29T12:09:06;94468.28;;;30.03;29.72
56831;BME280;42713;42.676;23.352;2023-07-29T12:11:33;94459.94;;;30.19;30.12
56831;BME280;42713;42.676;23.352;2023-07-29T12:14:00;94451.53;;;30.35;32.42
56831;BME280;42713;42.676;23.352;2023-07-29T12:16:25;94462.00;;;30.40;31.81
56831;BME280;42713;42.676;23.352;2023-07-29T12:18:51;94460.03;;;30.34;32.84
56831;BME280;42713;42.676;23.352;2023-07-29T12:21:19;94457.22;;;30.19;27.61
56831;BME280;42713;42.676;23.352;2023-07-29T12:23:45;94455.16;;;29.98;28.30
56831;BME280;42713;42.676;23.352;2023-07-29T12:26:11;94456.94;;;29.83;28.70
56831;BME280;42713;42.676;23.352;2023-07-29T12:28:37;94442.91;;;29.66;27.73
56831;BME280;42713;42.676;23.352;2023-07-29T12:31:10;94439.53;;;29.77;29.95
56831;BME280;42713;42.676;23.352;2023-07-29T12:33:39;94443.06;;;29.85;28.20
56831;BME280;42713;42.676;23.352;2023-07-29T12:36:07;94453.88;;;29.88;30.46
56831;BME280;42713;42.676;23.352;2023-07-29T12:38:33;94438.88;;;29.91;27.94
56831;BME280;42713;42.676;23.352;2023-07-29T12:41:05;94438.47;;;29.89;29.17
56831;BME280;42713;42.676;23.352;2023-07-29T12:43:45;94438.22;;;30.01;30.53
56831;BME280;42713;42.676;23.352;2023-07-29T12:46:29;94441.41;;;30.18;29.08
56831;BME280;42713;42.676;23.352;2023-07-29T12:48:58;94432.56;;;30.21;29.44
56831;BME280;42713;42.676;23.352;2023-07-29T12:51:24;94456.22;;;30.42;29.46
56831;BME280;42713;42.676;23.352;2023-07-29T12:53:50;94441.53;;;30.36;27.79
56831;BME280;42713;42.676;23.352;2023-07-29T12:56:16;94448.94;;;30.50;28.18
56831;BME280;42713;42.676;23.352;2023-07-29T12:58:42;94433.47;;;30.43;25.46
56831;BME280;42713;42.676;23.352;2023-07-29T13:01:13;94436.31;;;30.68;26.82
56831;BME280;42713;42.676;23.352;2023-07-29T13:03:47;94427.88;;;30.81;25.28